KCGF/CGF METAR and TAF weather

Enter ICAO airport designator
Station Type Date Time Source
KCGF METAR 2020/09/23 19:45 UTC NOAA

KCGF 231945Z 28009KT 20SM SKC 23/14 A3000


Station Type Date Time Source
KCGF Decoded METAR 2020/09/23 19:45 UTC NOAA

Cleveland / Cuyahoga, OH, United States (KCGF) 41-34N 081-29W
Sep 23, 2020 - 03:45 PM EDT / 2020.09.23 1945 UTC
Wind: from the W (280 degrees) at 10 MPH (9 KT):0
Visibility: 20 mile(s):0
Sky conditions: clear
Temperature: 73 F (23 C)
Dew Point: 57 F (14 C)
Relative Humidity: 56%
Pressure (altimeter): 30 in. Hg (1015 hPa)
ob: KCGF 231945Z 28009KT 20SM SKC 23/14 A3000
cycle: 20

Station Type Date Time Source
KCGF TAF 2016/07/19 12:36 UTC NOAA

TAF KCGF 191136Z 1912/2012 VRB05KT P6SM SCT080
FM191400 33008KT P6SM SCT040
FM191900 35008KT P6SM SCT060
FM200000 04003KT P6SM SCT080
FM200700 14003KT P6SM SKC

Example: see airport list